Aviation Digital Data Service (ADDS)

Output produced by METARs form (0937 UTC 19 November 2018)
found at http://www.aviationweather.gov/metar/data/
 
KEAU 190856Z AUTO 08003KT 10SM FEW080 OVC100 M06/M11 A2999 RMK AO2 SLP169 T10611111 56006
KEAU 190520Z 1906/2006 21006KT P6SM BKN100 
     FM190800 19005KT P6SM VCSH SCT030 OVC060 
     FM190900 VRB04KT 5SM -SHSN OVC030 
     TEMPO 1910/1914 2SM -SN OVC025 
     FM191500 36008KT P6SM BKN020 
     FM192100 35008KT P6SM BKN035 
     FM200100 35005KT P6SM SCT025
       
KRNH 190935Z AUTO 00000KT 3SM -SN SCT015 BKN020 OVC041 M05/M08 A2999 RMK AO2 T10501083
KRNH 190915Z AUTO 00000KT 10SM BKN037 BKN050 OVC065 M05/M08 A2999 RMK AO2 T10481085
KRNH 190855Z AUTO 00000KT 10SM SCT060 SCT075 OVC100 M05/M09 A2998 RMK AO2 T10501086
KRNH 190852Z 1909/2006 VRB03KT 4SM -SHSN OVC030 
     TEMPO 1909/1912 1 1/2SM -SN BKN015 
     FM191400 36007KT P6SM BKN020 
     FM192100 35009KT P6SM BKN035 
     FM200100 35005KT P6SM SCT040
       
KMSP 190853Z 05003KT 10SM BKN070 OVC085 M03/M07 A2998 RMK AO2 SLP164 T10331072 53002
KMSP 190841Z 1909/2012 VRB03KT P6SM VCSH OVC090 
     FM191200 35006KT P6SM SCT020 OVC070 
     FM191700 35010G16KT P6SM OVC020 
     FM192100 35010KT P6SM BKN035 
     FM200000 34009KT P6SM FEW030